createdAt,value
2018-03-29T00:00:44.320Z,23.6
2018-03-29T00:01:36.483Z,23.6
2018-03-29T00:02:27.023Z,23.6
2018-03-29T00:03:16.684Z,23.6
2018-03-29T00:04:06.383Z,23.6
2018-03-29T00:04:55.912Z,23.6
2018-03-29T00:05:44.756Z,23.6
2018-03-29T00:06:36.326Z,23.7
2018-03-29T00:07:26.795Z,23.6
2018-03-29T00:08:16.366Z,23.6
2018-03-29T00:09:06.496Z,23.7
2018-03-29T00:09:56.489Z,23.8
2018-03-29T00:10:47.712Z,23.8
2018-03-29T00:11:36.398Z,23.9
2018-03-29T00:12:27.057Z,23.9
2018-03-29T00:13:17.320Z,23.9
2018-03-29T00:14:07.561Z,23.9
2018-03-29T00:14:57.401Z,23.9
2018-03-29T00:15:47.589Z,23.9
2018-03-29T00:16:36.724Z,23.9
2018-03-29T00:17:27.457Z,23.9
2018-03-29T00:18:16.568Z,24
2018-03-29T00:19:06.752Z,24
2018-03-29T00:19:57.494Z,23.9
2018-03-29T00:20:47.932Z,24
2018-03-29T00:21:37.007Z,24
2018-03-29T00:22:27.844Z,24.1
2018-03-29T00:23:17.339Z,24.1
2018-03-29T00:24:07.208Z,24
2018-03-29T00:24:57.792Z,24
2018-03-29T00:25:47.976Z,23.9
2018-03-29T00:26:38.006Z,23.9
2018-03-29T00:27:27.230Z,23.9
2018-03-29T00:28:16.999Z,23.9
2018-03-29T00:29:07.623Z,23.9
2018-03-29T00:29:57.604Z,23.9
2018-03-29T00:30:48.003Z,23.8
2018-03-29T00:31:37.683Z,23.8
2018-03-29T00:32:27.866Z,23.8
2018-03-29T00:33:19.153Z,23.8
2018-03-29T00:34:08.978Z,23.8
2018-03-29T00:34:59.558Z,23.8
2018-03-29T00:35:48.760Z,23.8
2018-03-29T00:36:39.441Z,23.8
2018-03-29T00:37:29.170Z,23.7
2018-03-29T00:38:19.225Z,23.7
2018-03-29T00:39:09.535Z,23.7
2018-03-29T00:39:59.350Z,23.6
2018-03-29T00:40:49.690Z,23.7
2018-03-29T00:41:39.983Z,23.7
2018-03-29T00:42:30.078Z,23.7
2018-03-29T00:43:20.109Z,23.7
2018-03-29T00:44:09.901Z,23.6
2018-03-29T00:45:00.281Z,23.6
2018-03-29T00:45:49.785Z,23.6
2018-03-29T00:46:39.215Z,23.7
2018-03-29T00:47:29.875Z,23.8
2018-03-29T00:48:20.782Z,23.7
2018-03-29T00:49:09.969Z,23.7
2018-03-29T00:49:59.202Z,23.7
2018-03-29T00:50:50.368Z,23.8
2018-03-29T00:51:40.787Z,23.8
2018-03-29T00:52:30.739Z,23.8
2018-03-29T00:53:20.551Z,23.8
2018-03-29T00:54:10.553Z,23.8
2018-03-29T00:55:00.980Z,23.9
2018-03-29T00:55:51.236Z,23.9
2018-03-29T00:56:41.036Z,23.9
2018-03-29T00:57:30.547Z,24
2018-03-29T00:58:21.162Z,24.1
2018-03-29T00:59:10.966Z,24
2018-03-29T01:00:00.404Z,24.1
2018-03-29T01:00:51.057Z,24.1
2018-03-29T01:01:40.901Z,24.1
2018-03-29T01:02:31.479Z,24.1
2018-03-29T01:03:21.262Z,24.1
2018-03-29T01:04:11.287Z,24.1
2018-03-29T01:05:01.921Z,24.1
2018-03-29T01:05:51.751Z,24.1
2018-03-29T01:06:41.785Z,24
2018-03-29T01:07:31.803Z,23.9
2018-03-29T01:08:21.908Z,23.9
2018-03-29T01:09:11.980Z,23.9
2018-03-29T01:10:02.002Z,23.9
2018-03-29T01:10:51.759Z,23.9
2018-03-29T01:11:41.555Z,23.9
2018-03-29T01:12:32.143Z,23.9
2018-03-29T01:13:22.241Z,23.9
2018-03-29T01:14:12.306Z,23.9
2018-03-29T01:15:02.357Z,23.9
2018-03-29T01:15:52.135Z,23.8
2018-03-29T01:16:42.199Z,23.8
2018-03-29T01:17:32.788Z,23.8
2018-03-29T01:18:21.757Z,23.8
2018-03-29T01:19:12.166Z,23.8
2018-03-29T01:20:01.396Z,23.7
2018-03-29T01:20:52.427Z,23.7
2018-03-29T01:21:42.523Z,23.8
2018-03-29T01:22:32.592Z,23.7
2018-03-29T01:23:22.337Z,23.7
2018-03-29T01:24:12.978Z,23.7
2018-03-29T01:25:15.262Z,23.6
2018-03-29T01:25:51.275Z,23.6
2018-03-29T01:26:41.425Z,23.6
2018-03-29T01:27:30.707Z,23.7
2018-03-29T01:28:21.173Z,23.7
2018-03-29T01:29:12.087Z,23.7
2018-03-29T01:30:01.383Z,23.6
2018-03-29T01:30:52.198Z,23.6
2018-03-29T01:31:42.562Z,23.6
2018-03-29T01:32:32.929Z,23.6
2018-03-29T01:33:21.302Z,23.6
2018-03-29T01:34:11.454Z,23.6
2018-03-29T01:35:02.142Z,23.6
2018-03-29T01:35:52.109Z,23.6
2018-03-29T01:36:42.051Z,23.6
2018-03-29T01:37:31.611Z,23.6
2018-03-29T01:38:23.769Z,23.6
2018-03-29T01:39:12.431Z,23.6
2018-03-29T01:40:02.574Z,23.6
2018-03-29T01:40:52.859Z,23.6
2018-03-29T01:41:42.059Z,23.6
2018-03-29T01:42:33.002Z,23.7
2018-03-29T01:43:22.014Z,23.7
2018-03-29T01:44:12.873Z,23.7
2018-03-29T01:45:02.942Z,23.8
2018-03-29T01:45:53.337Z,23.8
2018-03-29T01:46:43.542Z,23.8
2018-03-29T01:47:33.527Z,23.9
2018-03-29T01:48:23.444Z,23.9
2018-03-29T01:49:13.789Z,23.9
2018-03-29T01:50:03.667Z,23.9
2018-03-29T01:50:54.171Z,23.9
2018-03-29T01:51:43.196Z,23.9
2018-03-29T01:52:32.988Z,23.9
2018-03-29T01:53:23.591Z,23.9
2018-03-29T01:54:14.828Z,23.9
2018-03-29T01:55:03.436Z,24
2018-03-29T01:55:54.753Z,24.1
2018-03-29T01:56:43.920Z,24.1
2018-03-29T01:57:34.878Z,24.1
2018-03-29T01:58:24.244Z,24.1
2018-03-29T01:59:14.417Z,24
2018-03-29T02:00:04.317Z,24
2018-03-29T02:00:54.074Z,24
2018-03-29T02:01:44.232Z,23.9
2018-03-29T02:02:33.750Z,23.9
2018-03-29T02:03:23.908Z,23.9
2018-03-29T02:04:13.777Z,23.9
2018-03-29T02:05:03.357Z,23.8
2018-03-29T02:05:54.697Z,23.8
2018-03-29T02:06:44.379Z,23.8
2018-03-29T02:07:35.300Z,23.8
2018-03-29T02:08:24.593Z,23.8
2018-03-29T02:09:15.655Z,23.8
2018-03-29T02:10:04.770Z,23.8
2018-03-29T02:10:55.505Z,23.8
2018-03-29T02:11:45.181Z,23.7
2018-03-29T02:12:34.254Z,23.6
2018-03-29T02:13:25.297Z,23.6
2018-03-29T02:14:16.082Z,23.6
2018-03-29T02:15:04.827Z,23.7
2018-03-29T02:15:55.478Z,23.6
2018-03-29T02:16:45.660Z,23.7
2018-03-29T02:17:35.275Z,23.6
2018-03-29T02:18:26.009Z,23.7
2018-03-29T02:19:15.709Z,23.6
2018-03-29T02:20:05.580Z,23.7
2018-03-29T02:20:55.721Z,23.8
2018-03-29T02:21:45.101Z,23.8
2018-03-29T02:22:35.441Z,23.8
2018-03-29T02:23:25.729Z,23.8
2018-03-29T02:24:15.547Z,23.8
2018-03-29T02:25:07.084Z,23.8
2018-03-29T02:25:55.784Z,23.8
2018-03-29T02:26:46.486Z,23.8
2018-03-29T02:27:36.349Z,23.8
2018-03-29T02:28:25.876Z,23.9
2018-03-29T02:29:15.781Z,23.9
2018-03-29T02:30:05.075Z,24
2018-03-29T02:30:56.629Z,24.1
2018-03-29T02:31:45.622Z,24.1
2018-03-29T02:32:36.708Z,24.1
2018-03-29T02:33:25.988Z,24
2018-03-29T02:34:16.165Z,24
2018-03-29T02:35:06.768Z,24.1
2018-03-29T02:35:57.493Z,24.1
2018-03-29T02:36:46.382Z,24.1
2018-03-29T02:37:37.100Z,24.1
2018-03-29T02:38:27.122Z,24.1
2018-03-29T02:39:17.118Z,24.1
2018-03-29T02:40:07.293Z,24.1
2018-03-29T02:40:56.920Z,24.1
2018-03-29T02:41:47.206Z,24
2018-03-29T02:42:36.635Z,24.1
2018-03-29T02:43:27.696Z,24
2018-03-29T02:44:16.886Z,23.9
2018-03-29T02:45:06.908Z,23.9
2018-03-29T02:45:57.543Z,23.9
2018-03-29T02:46:47.033Z,23.9
2018-03-29T02:47:37.961Z,23.9
2018-03-29T02:48:27.406Z,23.9
2018-03-29T02:49:17.408Z,23.9
2018-03-29T02:50:07.855Z,23.9
2018-03-29T02:50:58.332Z,23.8
2018-03-29T02:51:47.310Z,23.8
2018-03-29T02:52:38.711Z,23.8
2018-03-29T02:53:27.570Z,23.8
2018-03-29T02:54:18.047Z,23.8
2018-03-29T02:55:08.418Z,23.8
2018-03-29T02:55:57.870Z,23.8
2018-03-29T02:56:47.868Z,23.8
2018-03-29T02:57:38.644Z,23.8
2018-03-29T02:58:28.560Z,23.8
2018-03-29T02:59:18.000Z,23.7
2018-03-29T03:00:08.003Z,23.7
2018-03-29T03:00:57.636Z,23.7
2018-03-29T03:01:49.253Z,23.7
2018-03-29T03:02:39.047Z,23.8
2018-03-29T03:03:29.269Z,23.8
2018-03-29T03:04:18.164Z,23.8
2018-03-29T03:05:08.226Z,23.8
2018-03-29T03:05:59.292Z,23.9
2018-03-29T03:06:48.338Z,23.9
2018-03-29T03:07:39.374Z,23.9
2018-03-29T03:08:29.429Z,23.8
2018-03-29T03:09:18.642Z,23.9
2018-03-29T03:10:08.656Z,23.9
2018-03-29T03:10:59.479Z,23.9
2018-03-29T03:11:49.377Z,23.9
2018-03-29T03:12:39.519Z,23.9
2018-03-29T03:13:30.469Z,23.9
2018-03-29T03:14:18.864Z,23.9
2018-03-29T03:15:09.320Z,23.9
2018-03-29T03:15:58.567Z,23.9
2018-03-29T03:16:49.994Z,23.9
2018-03-29T03:17:40.179Z,23.9
2018-03-29T03:18:29.931Z,23.9
2018-03-29T03:19:20.040Z,24
2018-03-29T03:20:09.454Z,23.9
2018-03-29T03:20:59.601Z,23.9
2018-03-29T03:21:49.901Z,24.1
2018-03-29T03:22:39.415Z,24.1
2018-03-29T03:23:29.768Z,24.1
2018-03-29T03:24:19.526Z,24.1
2018-03-29T03:25:11.018Z,24
2018-03-29T03:26:00.230Z,23.9
2018-03-29T03:26:50.191Z,23.9
2018-03-29T03:27:40.033Z,23.9
2018-03-29T03:28:29.848Z,23.9
2018-03-29T03:29:20.273Z,23.9
2018-03-29T03:30:10.759Z,23.9
2018-03-29T03:30:59.992Z,23.9
2018-03-29T03:31:51.387Z,23.8
2018-03-29T03:32:40.617Z,23.8
2018-03-29T03:33:31.465Z,23.8
2018-03-29T03:34:21.137Z,23.8
2018-03-29T03:35:10.982Z,23.8
2018-03-29T03:36:00.777Z,23.7
2018-03-29T03:36:50.728Z,23.7
2018-03-29T03:37:41.090Z,23.6
2018-03-29T03:38:31.813Z,23.6
2018-03-29T03:39:21.110Z,23.6
2018-03-29T03:40:10.070Z,23.6
2018-03-29T03:41:01.540Z,23.6
2018-03-29T03:41:51.178Z,23.6
2018-03-29T03:42:40.945Z,23.6
2018-03-29T03:43:31.667Z,23.6
2018-03-29T03:44:21.127Z,23.6
2018-03-29T03:45:12.228Z,23.6
2018-03-29T03:46:00.807Z,23.5
2018-03-29T03:46:53.193Z,23.6
2018-03-29T03:47:42.677Z,23.6
2018-03-29T03:48:32.452Z,23.6
2018-03-29T03:49:22.787Z,23.6
2018-03-29T03:50:13.178Z,23.6
2018-03-29T03:51:03.217Z,23.6
2018-03-29T03:51:53.027Z,23.7
2018-03-29T03:52:43.337Z,23.6
2018-03-29T03:53:33.370Z,23.7
2018-03-29T03:54:23.220Z,23.7
2018-03-29T03:55:13.497Z,23.7
2018-03-29T03:56:03.531Z,23.7
2018-03-29T03:56:53.300Z,23.7
2018-03-29T03:57:43.654Z,23.8
2018-03-29T03:58:33.711Z,23.8
2018-03-29T03:59:23.791Z,23.8
2018-03-29T04:00:14.094Z,23.8
2018-03-29T04:01:03.069Z,23.9
2018-03-29T04:01:53.983Z,23.8
2018-03-29T04:02:44.040Z,23.9
2018-03-29T04:03:34.342Z,23.9
2018-03-29T04:04:24.183Z,23.9
2018-03-29T04:05:14.182Z,23.9
2018-03-29T04:06:04.223Z,23.9
2018-03-29T04:06:53.470Z,24
2018-03-29T04:07:44.386Z,24
2018-03-29T04:08:34.403Z,24
2018-03-29T04:09:23.616Z,24.1
2018-03-29T04:10:14.611Z,24.1
2018-03-29T04:11:04.602Z,24.1
2018-03-29T04:11:54.339Z,24.1
2018-03-29T04:12:44.216Z,24.1
2018-03-29T04:13:34.778Z,24.1
2018-03-29T04:14:24.269Z,24.1
2018-03-29T04:15:14.903Z,24.1
2018-03-29T04:16:04.953Z,24.1
2018-03-29T04:16:54.448Z,24.1
2018-03-29T04:17:45.301Z,24
2018-03-29T04:18:34.873Z,24
2018-03-29T04:19:24.905Z,24
2018-03-29T04:20:14.947Z,23.9
2018-03-29T04:21:05.320Z,23.9
2018-03-29T04:21:55.658Z,23.9
2018-03-29T04:22:44.464Z,23.9
2018-03-29T04:23:34.486Z,23.9
2018-03-29T04:24:24.919Z,23.9
2018-03-29T04:25:15.586Z,23.9
2018-03-29T04:26:05.921Z,23.8
2018-03-29T04:26:55.956Z,23.8
2018-03-29T04:27:46.031Z,23.8
2018-03-29T04:28:35.816Z,23.8
2018-03-29T04:29:25.596Z,23.8
2018-03-29T04:30:15.657Z,23.8
2018-03-29T04:31:04.311Z,23.7
2018-03-29T04:31:55.976Z,23.7
2018-03-29T04:32:44.865Z,23.6
2018-03-29T04:33:34.771Z,23.6
2018-03-29T04:34:25.753Z,23.6
2018-03-29T04:35:14.769Z,23.6
2018-03-29T04:36:04.729Z,23.6
2018-03-29T04:36:55.955Z,23.6
2018-03-29T04:37:44.758Z,23.6
2018-03-29T04:38:35.303Z,23.6
2018-03-29T04:39:25.123Z,23.6
2018-03-29T04:40:16.195Z,23.6
2018-03-29T04:41:05.986Z,23.6
2018-03-29T04:41:55.449Z,23.5
2018-03-29T04:42:45.723Z,23.6
2018-03-29T04:43:35.741Z,23.6
2018-03-29T04:44:25.508Z,23.5
2018-03-29T04:45:15.452Z,23.4
2018-03-29T04:46:05.704Z,23.4
2018-03-29T04:46:55.805Z,23.3
2018-03-29T04:47:45.937Z,23.3
2018-03-29T04:48:35.296Z,23.3
2018-03-29T04:49:26.370Z,23.3
2018-03-29T04:50:16.777Z,23.3
2018-03-29T04:51:05.401Z,23.3
2018-03-29T04:51:55.532Z,23.3
2018-03-29T04:52:46.100Z,23.3
2018-03-29T04:53:37.119Z,23.3
2018-03-29T04:54:27.147Z,23.3
2018-03-29T04:55:16.580Z,23.4
2018-03-29T04:56:05.917Z,23.4
2018-03-29T04:56:57.092Z,23.4
2018-03-29T04:57:45.660Z,23.4
2018-03-29T04:58:37.001Z,23.4
2018-03-29T04:59:26.157Z,23.4
2018-03-29T05:00:16.015Z,23.4
2018-03-29T05:01:06.892Z,23.4
2018-03-29T05:01:56.717Z,23.5
2018-03-29T05:02:46.981Z,23.5
2018-03-29T05:03:35.856Z,23.6
2018-03-29T05:04:28.080Z,23.6
2018-03-29T05:05:17.064Z,23.6
2018-03-29T05:06:06.916Z,23.6
2018-03-29T05:06:58.076Z,23.6
2018-03-29T05:07:46.964Z,23.7
2018-03-29T05:08:36.906Z,23.8
2018-03-29T05:09:27.378Z,23.8
2018-03-29T05:10:18.289Z,23.8
2018-03-29T05:11:07.897Z,23.8
2018-03-29T05:11:57.626Z,23.8
2018-03-29T05:12:47.016Z,23.8
2018-03-29T05:13:37.595Z,23.8
2018-03-29T05:14:27.296Z,23.8
2018-03-29T05:15:16.866Z,23.8
2018-03-29T05:16:08.203Z,23.8
2018-03-29T05:16:58.183Z,23.8
2018-03-29T05:17:48.273Z,23.8
2018-03-29T05:18:38.186Z,23.8
2018-03-29T05:19:27.543Z,23.7
2018-03-29T05:20:18.864Z,23.7
2018-03-29T05:21:08.128Z,23.7
2018-03-29T05:21:58.262Z,23.6
2018-03-29T05:22:48.211Z,23.6
2018-03-29T05:23:38.176Z,23.6
2018-03-29T05:24:28.418Z,23.6
2018-03-29T05:25:18.948Z,23.6
2018-03-29T05:26:08.028Z,23.6
2018-03-29T05:26:58.244Z,23.6
2018-03-29T05:27:48.539Z,23.5
2018-03-29T05:28:37.982Z,23.5
2018-03-29T05:29:28.827Z,23.4
2018-03-29T05:30:17.730Z,23.4
2018-03-29T05:31:08.862Z,23.4
2018-03-29T05:31:59.127Z,23.4
2018-03-29T05:32:47.990Z,23.4
2018-03-29T05:33:39.029Z,23.4
2018-03-29T05:34:29.009Z,23.4
2018-03-29T05:35:19.239Z,23.4
2018-03-29T05:36:08.710Z,23.4
2018-03-29T05:36:59.053Z,23.4
2018-03-29T05:37:49.979Z,23.4
2018-03-29T05:38:40.017Z,23.4
2018-03-29T05:39:29.025Z,23.4
2018-03-29T05:40:20.090Z,23.4
2018-03-29T05:41:10.567Z,23.4
2018-03-29T05:42:00.943Z,23.5
2018-03-29T05:42:50.999Z,23.5
2018-03-29T05:43:41.108Z,23.5
2018-03-29T05:44:30.807Z,23.6
2018-03-29T05:45:21.456Z,23.6
2018-03-29T05:46:10.618Z,23.6
2018-03-29T05:47:01.060Z,23.6
2018-03-29T05:47:51.381Z,23.6
2018-03-29T05:48:41.375Z,23.7
2018-03-29T05:49:31.453Z,23.7
2018-03-29T05:50:21.796Z,23.7
2018-03-29T05:51:11.625Z,23.8
2018-03-29T05:52:01.624Z,23.7
2018-03-29T05:52:51.649Z,23.7
2018-03-29T05:53:41.774Z,23.7
2018-03-29T05:54:32.080Z,23.7
2018-03-29T05:55:21.623Z,23.7
2018-03-29T05:56:10.768Z,23.7
2018-03-29T05:57:02.288Z,23.7
2018-03-29T05:57:51.745Z,23.6
2018-03-29T05:58:41.543Z,23.6
2018-03-29T05:59:31.738Z,23.6
2018-03-29T06:00:20.281Z,23.6
2018-03-29T06:01:11.626Z,23.5
2018-03-29T06:02:01.331Z,23.4
2018-03-29T06:02:51.844Z,23.4
2018-03-29T06:03:40.761Z,23.4
2018-03-29T06:04:32.375Z,23.3
2018-03-29T06:05:21.060Z,23.3
2018-03-29T06:06:10.642Z,23.3
2018-03-29T06:07:01.065Z,23.2
2018-03-29T06:07:51.348Z,23.2
2018-03-29T06:08:41.470Z,23.1
2018-03-29T06:09:31.438Z,23.1
2018-03-29T06:10:20.841Z,23.1
2018-03-29T06:11:11.260Z,22.9
2018-03-29T06:12:01.455Z,22.9
2018-03-29T06:12:51.565Z,22.9
2018-03-29T06:13:41.516Z,22.9
2018-03-29T06:14:32.024Z,22.8
2018-03-29T06:15:21.567Z,22.9
2018-03-29T06:16:11.236Z,22.8
2018-03-29T06:17:01.997Z,22.8
2018-03-29T06:17:52.647Z,22.8
2018-03-29T06:18:41.690Z,22.9
2018-03-29T06:19:31.845Z,22.9
2018-03-29T06:20:22.692Z,23
2018-03-29T06:21:12.265Z,23.1
2018-03-29T06:22:02.725Z,23
2018-03-29T06:22:52.957Z,23
2018-03-29T06:23:42.662Z,23.2
2018-03-29T06:24:32.490Z,23.3
2018-03-29T06:25:23.257Z,23.3
2018-03-29T06:26:11.729Z,23.3
2018-03-29T06:27:03.254Z,23.3
2018-03-29T06:27:53.410Z,23.3
2018-03-29T06:28:43.278Z,23.3
2018-03-29T06:29:32.826Z,23.3
2018-03-29T06:30:23.264Z,23.3
2018-03-29T06:31:13.431Z,23.3
2018-03-29T06:32:03.150Z,23.3
2018-03-29T06:32:52.952Z,23.2
2018-03-29T06:33:42.899Z,23.2
2018-03-29T06:34:33.586Z,23.3
2018-03-29T06:35:23.796Z,23.2
2018-03-29T06:36:13.384Z,23.2
2018-03-29T06:37:04.222Z,23.1
2018-03-29T06:37:54.026Z,23.1
2018-03-29T06:38:44.266Z,23.1
2018-03-29T06:39:33.426Z,23.1
2018-03-29T06:40:23.721Z,23.1
2018-03-29T06:41:14.563Z,23
2018-03-29T06:42:04.083Z,23.1
2018-03-29T06:42:54.033Z,23.1
2018-03-29T06:43:45.323Z,23
2018-03-29T06:44:35.118Z,23
2018-03-29T06:45:24.031Z,22.9
2018-03-29T06:46:14.609Z,22.9
2018-03-29T06:47:05.445Z,22.9
2018-03-29T06:47:54.440Z,22.8
2018-03-29T06:48:44.393Z,22.7
2018-03-29T06:49:33.560Z,22.6
2018-03-29T06:50:24.105Z,22.6
2018-03-29T06:51:14.458Z,22.6
2018-03-29T06:52:05.583Z,22.6
2018-03-29T06:52:54.956Z,22.7
2018-03-29T06:53:44.833Z,22.7
2018-03-29T06:54:34.083Z,22.7
2018-03-29T06:55:25.688Z,22.6
2018-03-29T06:56:14.415Z,22.6
2018-03-29T06:57:04.546Z,22.6
2018-03-29T06:57:55.048Z,22.6
2018-03-29T06:58:46.060Z,22.6
2018-03-29T06:59:35.640Z,22.6
2018-03-29T07:00:25.908Z,22.6
2018-03-29T07:01:15.281Z,22.6
2018-03-29T07:02:04.768Z,22.8
2018-03-29T07:02:54.994Z,22.8
2018-03-29T07:03:45.660Z,22.9
2018-03-29T07:04:34.933Z,22.9
2018-03-29T07:05:25.528Z,22.9
2018-03-29T07:06:15.281Z,22.8
2018-03-29T07:07:05.830Z,22.9
2018-03-29T07:07:56.359Z,22.8
2018-03-29T07:08:45.605Z,22.8
2018-03-29T07:09:36.441Z,22.8
2018-03-29T07:10:25.447Z,22.8
2018-03-29T07:11:15.846Z,22.8
2018-03-29T07:12:06.824Z,22.7
2018-03-29T07:12:57.090Z,22.8
2018-03-29T07:13:45.444Z,22.6
2018-03-29T07:14:35.696Z,22.6
2018-03-29T07:15:25.609Z,22.7
2018-03-29T07:16:16.008Z,22.6
2018-03-29T07:17:07.012Z,22.7
2018-03-29T07:17:56.619Z,22.7
2018-03-29T07:18:47.192Z,22.7
2018-03-29T07:19:36.068Z,22.6
2018-03-29T07:20:25.362Z,22.6
2018-03-29T07:21:16.426Z,22.6
2018-03-29T07:22:06.876Z,22.6
2018-03-29T07:22:57.313Z,22.6
2018-03-29T07:23:46.570Z,22.5
2018-03-29T07:24:37.406Z,22.4
2018-03-29T07:25:27.059Z,22.4
2018-03-29T07:26:17.493Z,22.4
2018-03-29T07:27:07.403Z,22.4
2018-03-29T07:27:55.488Z,22.4
2018-03-29T07:28:47.908Z,22.4
2018-03-29T07:29:37.238Z,22.4
2018-03-29T07:30:27.558Z,22.4
2018-03-29T07:31:18.240Z,22.4
2018-03-29T07:32:07.553Z,22.4
2018-03-29T07:32:57.903Z,22.5
2018-03-29T07:33:46.111Z,22.6
2018-03-29T07:34:37.625Z,22.5
2018-03-29T07:35:27.618Z,22.5
2018-03-29T07:36:17.938Z,22.6
2018-03-29T07:37:07.263Z,22.6
2018-03-29T07:37:58.340Z,22.6
2018-03-29T07:38:48.623Z,22.8
2018-03-29T07:39:37.930Z,22.8
2018-03-29T07:40:29.023Z,22.8
2018-03-29T07:41:17.930Z,22.7
2018-03-29T07:42:07.068Z,22.6
2018-03-29T07:42:59.295Z,22.7
2018-03-29T07:43:48.282Z,22.6
2018-03-29T07:44:36.718Z,22.3
2018-03-29T07:45:28.951Z,22.1
2018-03-29T07:46:18.192Z,21.8
2018-03-29T07:47:09.448Z,21.6
2018-03-29T07:47:58.270Z,21.5
2018-03-29T07:48:49.327Z,21.6
2018-03-29T07:49:39.554Z,21.7
2018-03-29T07:50:28.782Z,21.8
2018-03-29T07:51:19.224Z,21.8
2018-03-29T07:52:09.281Z,21.8
2018-03-29T07:52:58.159Z,21.9
2018-03-29T07:53:49.390Z,21.9
2018-03-29T07:54:38.012Z,21.9
2018-03-29T07:55:30.097Z,21.9
2018-03-29T07:56:19.291Z,21.9
2018-03-29T07:57:09.394Z,22
2018-03-29T07:57:58.777Z,22
2018-03-29T07:58:49.213Z,22.1
2018-03-29T07:59:39.505Z,22.1
2018-03-29T08:00:29.734Z,22.1
2018-03-29T08:01:19.668Z,22.1
2018-03-29T08:02:09.841Z,22.1
2018-03-29T08:02:59.124Z,22.2
2018-03-29T08:03:49.439Z,22.2
2018-03-29T08:04:39.671Z,22.3
2018-03-29T08:05:30.343Z,22.3
2018-03-29T08:06:20.317Z,22.3
2018-03-29T08:07:09.592Z,22.4
2018-03-29T08:07:59.474Z,22.4
2018-03-29T08:08:50.412Z,22.5
2018-03-29T08:09:40.625Z,22.5
2018-03-29T08:10:30.624Z,22.5
2018-03-29T08:11:20.672Z,22.6
2018-03-29T08:12:10.731Z,22.6
2018-03-29T08:13:00.709Z,22.6
2018-03-29T08:13:50.750Z,22.8
2018-03-29T08:14:40.944Z,22.7
2018-03-29T08:15:30.496Z,22.7
2018-03-29T08:16:19.781Z,22.8
2018-03-29T08:17:11.328Z,22.6
2018-03-29T08:18:01.104Z,22.7
2018-03-29T08:18:50.324Z,22.7
2018-03-29T08:19:40.818Z,22.6
2018-03-29T08:20:30.283Z,22.6
2018-03-29T08:21:21.504Z,22.6
2018-03-29T08:22:11.355Z,22.5
2018-03-29T08:23:01.051Z,22.5
2018-03-29T08:23:50.941Z,22.5
2018-03-29T08:24:40.671Z,22.5
2018-03-29T08:25:31.840Z,22.4
2018-03-29T08:26:21.488Z,22.4
2018-03-29T08:27:11.089Z,22.4
2018-03-29T08:28:01.431Z,22.3
2018-03-29T08:28:51.999Z,22.3
2018-03-29T08:29:41.846Z,22.3
2018-03-29T08:30:32.082Z,22.3
2018-03-29T08:31:21.751Z,22.3
2018-03-29T08:32:11.615Z,22.3
2018-03-29T08:33:01.100Z,22.3
2018-03-29T08:33:51.550Z,22.3
2018-03-29T08:34:42.001Z,22.2
2018-03-29T08:35:31.913Z,22.2
2018-03-29T08:36:21.722Z,22.2
2018-03-29T08:37:12.330Z,22.2
2018-03-29T08:38:02.549Z,22.3
2018-03-29T08:38:51.290Z,22.3
2018-03-29T08:39:41.190Z,22.3
2018-03-29T08:40:32.336Z,22.4
2018-03-29T08:41:22.495Z,22.5
2018-03-29T08:42:11.015Z,22.5
2018-03-29T08:43:01.823Z,22.6
2018-03-29T08:43:52.104Z,22.6
2018-03-29T08:44:43.553Z,22.7
2018-03-29T08:45:32.090Z,22.7
2018-03-29T08:46:21.685Z,22.8
2018-03-29T08:47:11.437Z,22.8
2018-03-29T08:48:02.779Z,22.9
2018-03-29T08:48:53.471Z,22.9
2018-03-29T08:49:42.881Z,23
2018-03-29T08:50:32.356Z,23.1
2018-03-29T08:51:23.590Z,23.2
2018-03-29T08:52:13.012Z,23.2
2018-03-29T08:53:04.019Z,23.2
2018-03-29T08:53:53.705Z,23.2
2018-03-29T08:54:43.580Z,23.3
2018-03-29T08:55:33.907Z,23.3
2018-03-29T08:56:23.657Z,23.3
2018-03-29T08:57:13.756Z,23.3
2018-03-29T08:58:03.926Z,23.3
2018-03-29T08:58:52.801Z,23.2
2018-03-29T08:59:43.666Z,23.2
2018-03-29T09:00:33.887Z,23.1
2018-03-29T09:01:24.342Z,23.2
2018-03-29T09:02:14.003Z,23.2
2018-03-29T09:03:04.294Z,23.1
2018-03-29T09:03:53.470Z,23.1
2018-03-29T09:04:44.982Z,23.1
2018-03-29T09:05:35.042Z,23.1
2018-03-29T09:06:24.120Z,23
2018-03-29T09:07:15.620Z,22.9
2018-03-29T09:08:04.159Z,22.9
2018-03-29T09:08:54.941Z,22.9
2018-03-29T09:09:44.454Z,22.9
2018-03-29T09:10:34.446Z,22.8
2018-03-29T09:11:25.095Z,22.7
2018-03-29T09:12:14.082Z,22.6
2018-03-29T09:13:05.219Z,22.6
2018-03-29T09:13:54.196Z,22.6
2018-03-29T09:14:44.424Z,22.6
2018-03-29T09:15:34.217Z,22.7
2018-03-29T09:16:24.856Z,22.6
2018-03-29T09:17:14.016Z,22.6
2018-03-29T09:18:04.157Z,22.5
2018-03-29T09:18:54.212Z,22.5
2018-03-29T09:19:44.796Z,22.4
2018-03-29T09:20:34.582Z,22.5
2018-03-29T09:21:25.329Z,22.6
2018-03-29T09:22:15.876Z,22.6
2018-03-29T09:23:05.918Z,22.8
2018-03-29T09:23:54.995Z,22.8
2018-03-29T09:24:45.423Z,22.9
2018-03-29T09:25:35.955Z,22.9
2018-03-29T09:26:25.555Z,23
2018-03-29T09:27:15.018Z,23
2018-03-29T09:28:06.359Z,23.1
2018-03-29T09:28:55.926Z,23
2018-03-29T09:29:45.127Z,23.1
2018-03-29T09:30:36.153Z,23.1
2018-03-29T09:31:25.746Z,23.1
2018-03-29T09:32:15.503Z,23
2018-03-29T09:33:05.175Z,23
2018-03-29T09:33:55.022Z,22.9
2018-03-29T09:34:46.275Z,22.9
2018-03-29T09:35:35.740Z,22.8
2018-03-29T09:36:26.115Z,22.7
2018-03-29T09:37:16.482Z,22.7
2018-03-29T09:38:07.694Z,22.6
2018-03-29T09:38:56.992Z,22.6
2018-03-29T09:39:46.760Z,22.5
2018-03-29T09:40:36.436Z,22.5
2018-03-29T09:41:27.443Z,22.5
2018-03-29T09:42:17.307Z,22.5
2018-03-29T09:43:07.949Z,22.5
2018-03-29T09:43:57.636Z,22.5
2018-03-29T09:44:46.724Z,22.5
2018-03-29T09:45:36.984Z,22.5
2018-03-29T09:46:27.653Z,22.5
2018-03-29T09:47:17.365Z,22.5
2018-03-29T09:48:06.887Z,22.5
2018-03-29T09:48:57.551Z,22.5
2018-03-29T09:49:47.644Z,22.5
2018-03-29T09:50:38.050Z,22.5
2018-03-29T09:51:27.757Z,22.6
2018-03-29T09:52:17.751Z,22.6
2018-03-29T09:53:07.599Z,22.7
2018-03-29T09:53:58.007Z,22.7
2018-03-29T09:54:47.533Z,22.8
2018-03-29T09:55:38.327Z,22.8
2018-03-29T09:56:27.925Z,22.8
2018-03-29T09:57:18.257Z,22.9
2018-03-29T09:58:07.756Z,22.9
2018-03-29T09:58:57.861Z,22.9
2018-03-29T09:59:48.261Z,23
2018-03-29T10:00:37.990Z,23.1
2018-03-29T10:01:28.546Z,23.2
2018-03-29T10:02:18.446Z,23.3
2018-03-29T10:03:08.438Z,23.4
2018-03-29T10:03:59.304Z,23.4
2018-03-29T10:04:48.962Z,23.4
2018-03-29T10:05:38.903Z,23.4
2018-03-29T10:06:28.767Z,23.4
2018-03-29T10:07:17.774Z,23.4
2018-03-29T10:08:06.966Z,23.3
2018-03-29T10:08:59.011Z,23.1
2018-03-29T10:09:48.686Z,22.9
2018-03-29T10:10:38.040Z,22.8
2018-03-29T10:11:28.281Z,22.8
2018-03-29T10:12:16.779Z,22.8
2018-03-29T10:13:09.092Z,22.8
2018-03-29T10:13:59.520Z,22.8
2018-03-29T10:14:49.344Z,22.8
2018-03-29T10:15:39.617Z,22.8
2018-03-29T10:16:28.674Z,22.8
2018-03-29T10:17:19.208Z,22.8
2018-03-29T10:18:09.140Z,22.8
2018-03-29T10:18:59.303Z,22.7
2018-03-29T10:19:48.603Z,22.6
2018-03-29T10:20:38.571Z,22.4
2018-03-29T10:21:29.442Z,22.1
2018-03-29T10:22:19.033Z,21.9
2018-03-29T10:23:08.681Z,21.8
2018-03-29T10:23:59.812Z,21.6
2018-03-29T10:24:49.182Z,21.6
2018-03-29T10:25:39.350Z,21.5
2018-03-29T10:26:29.486Z,21.4
2018-03-29T10:27:20.150Z,21.3
2018-03-29T10:28:10.188Z,21.3
2018-03-29T10:29:00.152Z,21.2
2018-03-29T10:31:30.142Z,21.1
2018-03-29T10:32:19.636Z,21.1
2018-03-29T10:33:10.392Z,21.1
2018-03-29T10:34:00.292Z,21.1
2018-03-29T10:34:50.191Z,21
2018-03-29T10:35:40.597Z,21.3
2018-03-29T10:36:30.039Z,21.4
2018-03-29T10:37:20.995Z,21.4
2018-03-29T10:38:11.236Z,21.6
2018-03-29T10:39:00.218Z,21.8
2018-03-29T10:39:50.882Z,21.9
2018-03-29T10:40:41.140Z,22
2018-03-29T10:41:31.199Z,22
2018-03-29T10:42:20.784Z,22.1
2018-03-29T10:43:11.232Z,22.1
2018-03-29T10:44:01.969Z,22.1
2018-03-29T10:44:51.313Z,22.2
2018-03-29T10:45:40.806Z,22.3
2018-03-29T10:46:31.688Z,22.2
2018-03-29T10:47:21.243Z,22.3
2018-03-29T10:48:10.426Z,22.3
2018-03-29T10:49:01.226Z,22.3
2018-03-29T10:49:51.329Z,22.3
2018-03-29T10:50:42.245Z,22.3
2018-03-29T10:51:31.589Z,22.3
2018-03-29T10:52:21.783Z,22.3
2018-03-29T10:53:11.738Z,22.3
2018-03-29T10:54:01.208Z,22.3
2018-03-29T10:54:51.475Z,22.3
2018-03-29T10:55:41.738Z,22.3
2018-03-29T10:56:31.588Z,22.3
2018-03-29T10:57:20.984Z,22.3
2018-03-29T10:58:12.817Z,22.3
2018-03-29T10:59:02.350Z,22.3
2018-03-29T10:59:51.637Z,22.3
2018-03-29T11:00:41.792Z,22.4
2018-03-29T11:01:32.656Z,22.3
2018-03-29T11:02:22.008Z,22.3
2018-03-29T11:03:13.300Z,22.3
2018-03-29T11:04:03.132Z,22.3
2018-03-29T11:04:51.721Z,22.3
2018-03-29T11:05:42.447Z,22.3
2018-03-29T11:06:31.614Z,22.4
2018-03-29T11:07:22.490Z,22.4
2018-03-29T11:08:11.955Z,22.4
2018-03-29T11:09:03.705Z,22.4
2018-03-29T11:09:53.102Z,22.5
2018-03-29T11:10:42.043Z,22.6